createdAt,value
2023-03-19T00:00:55.797Z,23.88
2023-03-19T00:01:55.864Z,23.92
2023-03-19T00:02:56.131Z,23.92
2023-03-19T00:03:55.897Z,23.85
2023-03-19T00:04:55.882Z,23.87
2023-03-19T00:05:55.928Z,23.90
2023-03-19T00:06:55.965Z,23.85
2023-03-19T00:07:55.986Z,23.87
2023-03-19T00:08:55.985Z,23.85
2023-03-19T00:09:55.991Z,23.79
2023-03-19T00:10:56.050Z,23.84
2023-03-19T00:11:56.043Z,23.90
2023-03-19T00:12:56.080Z,23.91
2023-03-19T00:13:56.097Z,23.91
2023-03-19T00:14:56.134Z,23.94
2023-03-19T00:15:56.133Z,23.89
2023-03-19T00:16:56.296Z,23.92
2023-03-19T00:17:56.272Z,23.92
2023-03-19T00:18:56.216Z,23.91
2023-03-19T00:19:56.268Z,23.90
2023-03-19T00:20:56.277Z,23.93
2023-03-19T00:21:56.273Z,23.88
2023-03-19T00:22:56.297Z,23.91
2023-03-19T00:23:56.322Z,23.93
2023-03-19T00:24:56.349Z,23.84
2023-03-19T00:25:56.379Z,23.88
2023-03-19T00:26:56.394Z,23.83
2023-03-19T00:27:56.423Z,23.82
2023-03-19T00:28:56.424Z,23.88
2023-03-19T00:29:56.474Z,23.80
2023-03-19T00:30:56.539Z,23.89
2023-03-19T00:31:56.556Z,23.87
2023-03-19T00:32:56.562Z,23.89
2023-03-19T00:33:56.578Z,23.90
2023-03-19T00:34:56.572Z,23.88
2023-03-19T00:35:56.615Z,23.89
2023-03-19T00:36:56.618Z,23.87
2023-03-19T00:37:56.655Z,23.92
2023-03-19T00:38:56.639Z,23.91
2023-03-19T00:39:56.667Z,23.93
2023-03-19T00:40:56.689Z,23.85
2023-03-19T00:41:56.744Z,23.86
2023-03-19T00:42:56.753Z,23.84
2023-03-19T00:43:56.728Z,23.92
2023-03-19T00:44:56.770Z,23.82
2023-03-19T00:45:56.864Z,23.89
2023-03-19T00:46:56.816Z,23.83
2023-03-19T01:01:04.538Z,23.91
2023-03-19T01:06:04.593Z,23.88
2023-03-19T01:07:04.660Z,23.95
2023-03-19T01:08:04.651Z,23.92
2023-03-19T01:16:04.883Z,23.89
2023-03-19T05:16:12.965Z,23.86
2023-03-19T05:17:12.957Z,23.91
2023-03-19T05:18:13.018Z,23.92
2023-03-19T05:19:13.073Z,23.85
2023-03-19T05:20:13.076Z,23.88
2023-03-19T05:21:13.191Z,23.88
2023-03-19T05:22:13.193Z,23.91
2023-03-19T05:23:13.238Z,23.85
2023-03-19T05:24:13.296Z,23.82
2023-03-19T05:25:13.319Z,23.83
2023-03-19T05:26:13.376Z,23.81
2023-03-19T05:27:13.397Z,23.92
2023-03-19T05:28:13.424Z,23.83
2023-03-19T05:29:13.512Z,23.85
2023-03-19T05:30:13.545Z,23.92
2023-03-19T05:31:13.638Z,23.90
2023-03-19T05:32:13.620Z,23.85
2023-03-19T05:33:13.719Z,23.92
2023-03-19T05:34:13.693Z,23.84
2023-03-19T05:35:13.787Z,23.86
2023-03-19T05:36:13.792Z,23.89
2023-03-19T05:37:13.836Z,23.84
2023-03-19T05:38:13.885Z,23.90
2023-03-19T05:39:13.930Z,23.96
2023-03-19T05:40:13.972Z,23.88
2023-03-19T05:41:13.997Z,23.86
2023-03-19T05:42:14.037Z,23.84
2023-03-19T05:43:14.049Z,23.87
2023-03-19T05:44:14.199Z,23.87
2023-03-19T05:45:14.109Z,23.90
2023-03-19T05:46:14.167Z,23.88
2023-03-19T05:47:14.181Z,23.89
2023-03-19T05:48:14.253Z,23.96
2023-03-19T05:49:14.257Z,23.89
2023-03-19T05:50:14.292Z,23.91
2023-03-19T05:51:14.384Z,23.89
2023-03-19T05:52:14.374Z,23.87
2023-03-19T05:53:14.394Z,23.88
2023-03-19T05:54:14.432Z,23.94
2023-03-19T05:55:14.470Z,23.92
2023-03-19T05:56:14.504Z,23.88
2023-03-19T05:57:14.540Z,23.82
2023-03-19T05:58:14.575Z,23.88
2023-03-19T05:59:14.600Z,23.83
2023-03-19T06:00:14.648Z,23.81
2023-03-19T06:01:14.722Z,23.82
2023-03-19T06:02:14.720Z,23.88
2023-03-19T06:03:14.783Z,23.82
2023-03-19T06:04:14.913Z,23.81
2023-03-19T06:05:14.847Z,23.82
2023-03-19T06:06:14.860Z,23.92
2023-03-19T06:07:14.922Z,23.91
2023-03-19T06:08:14.929Z,23.81
2023-03-19T06:09:14.942Z,23.81
2023-03-19T06:10:14.999Z,23.79
2023-03-19T06:11:15.026Z,23.78
2023-03-19T06:12:15.042Z,23.78
2023-03-19T06:13:15.096Z,23.83
2023-03-19T06:14:15.107Z,23.79
2023-03-19T06:15:15.137Z,23.77
2023-03-19T06:16:15.195Z,23.78
2023-03-19T06:17:15.169Z,23.78
2023-03-19T06:18:15.200Z,23.76
2023-03-19T06:19:15.243Z,23.85
2023-03-19T06:20:15.264Z,23.78
2023-03-19T06:21:15.300Z,23.75
2023-03-19T06:22:15.313Z,23.73
2023-03-19T06:23:16.388Z,23.72
2023-03-19T06:24:15.363Z,23.73
2023-03-19T06:25:15.431Z,23.76
2023-03-19T06:26:15.442Z,23.74
2023-03-19T06:27:15.449Z,23.74
2023-03-19T06:28:15.504Z,23.76
2023-03-19T06:29:15.527Z,23.72
2023-03-19T06:30:15.568Z,23.72
2023-03-19T06:31:15.559Z,23.67
2023-03-19T06:32:15.576Z,23.72
2023-03-19T06:33:15.592Z,23.69
2023-03-19T06:34:15.622Z,23.75
2023-03-19T06:35:15.637Z,23.71
2023-03-19T06:36:15.645Z,23.69
2023-03-19T06:37:15.720Z,23.69
2023-03-19T06:38:15.753Z,23.69
2023-03-19T06:39:15.733Z,23.66
2023-03-19T06:40:15.781Z,23.65
2023-03-19T06:41:15.784Z,23.65
2023-03-19T06:42:15.813Z,23.66
2023-03-19T06:43:15.835Z,23.64
2023-03-19T06:44:15.915Z,23.64
2023-03-19T06:45:15.835Z,23.64
2023-03-19T06:46:15.903Z,23.68
2023-03-19T06:47:15.901Z,23.69
2023-03-19T06:48:15.928Z,23.70
2023-03-19T06:49:15.906Z,23.73
2023-03-19T06:50:15.909Z,23.68
2023-03-19T06:51:15.947Z,23.65
2023-03-19T06:52:15.980Z,23.60
2023-03-19T06:53:16.088Z,23.61
2023-03-19T06:54:16.074Z,23.58
2023-03-19T06:55:16.097Z,23.60
2023-03-19T06:56:16.077Z,23.61
2023-03-19T06:57:16.113Z,23.44
2023-03-19T06:58:16.142Z,23.46
2023-03-19T06:59:16.124Z,23.35
2023-03-19T07:00:16.115Z,23.12
2023-03-19T07:01:16.150Z,23.11
2023-03-19T07:02:16.099Z,23.45
2023-03-19T07:03:16.132Z,23.29
2023-03-19T07:04:16.174Z,23.13
2023-03-19T07:05:16.127Z,23.56
2023-03-19T07:06:16.202Z,23.23
2023-03-19T07:07:16.179Z,23.40
2023-03-19T07:08:16.201Z,23.56
2023-03-19T07:09:16.222Z,23.30
2023-03-19T07:10:16.236Z,23.24
2023-03-19T07:11:16.237Z,23.33
2023-03-19T07:12:16.292Z,23.14
2023-03-19T07:13:16.329Z,23.43
2023-03-19T07:14:16.392Z,23.26
2023-03-19T07:15:16.414Z,23.30
2023-03-19T07:16:16.502Z,23.27
2023-03-19T07:17:16.522Z,23.42
2023-03-19T07:18:16.547Z,23.15
2023-03-19T07:19:16.636Z,23.22
2023-03-19T07:20:16.695Z,23.31
2023-03-19T07:21:16.748Z,23.30
2023-03-19T07:22:16.811Z,23.35
2023-03-19T07:23:16.873Z,23.44
2023-03-19T07:24:16.914Z,23.46
2023-03-19T07:25:16.994Z,23.35
2023-03-19T07:26:17.020Z,23.37
2023-03-19T07:27:17.040Z,23.37
2023-03-19T07:28:17.148Z,23.38
2023-03-19T07:29:17.165Z,23.36
2023-03-19T07:30:17.200Z,23.42
2023-03-19T07:31:17.316Z,23.35
2023-03-19T07:32:17.319Z,23.33
2023-03-19T07:33:17.367Z,23.38
2023-03-19T07:34:17.431Z,23.28
2023-03-19T07:35:17.434Z,23.30
2023-03-19T07:36:17.512Z,23.30
2023-03-19T07:37:17.569Z,23.26
2023-03-19T07:38:17.542Z,23.30
2023-03-19T07:39:17.619Z,23.30
2023-03-19T07:40:17.605Z,23.31
2023-03-19T07:41:17.660Z,23.29
2023-03-19T07:43:19.001Z,23.26
2023-03-19T07:44:19.028Z,23.21
2023-03-19T07:45:19.080Z,23.25
2023-03-19T07:46:19.159Z,23.24
2023-03-19T07:47:28.507Z,23.22
2023-03-19T07:48:20.097Z,23.23
2023-03-19T07:49:19.090Z,23.17
2023-03-19T07:50:19.065Z,23.17
2023-03-19T07:51:19.079Z,23.17
2023-03-19T07:52:19.061Z,23.17
2023-03-19T07:53:19.072Z,23.16
2023-03-19T07:54:19.044Z,23.13
2023-03-19T07:55:19.054Z,23.10
2023-03-19T07:56:19.054Z,23.09
2023-03-19T07:57:19.038Z,23.08
2023-03-19T07:58:19.063Z,23.06
2023-03-19T07:59:19.038Z,23.03
2023-03-19T08:00:19.018Z,23.01
2023-03-19T08:01:19.011Z,23.02
2023-03-19T08:02:22.332Z,23.02
2023-03-19T08:03:19.006Z,23.01
2023-03-19T08:04:19.005Z,22.98
2023-03-19T08:05:19.033Z,22.99
2023-03-19T08:06:19.029Z,22.99
2023-03-19T08:07:19.017Z,22.99
2023-03-19T08:08:18.984Z,22.99
2023-03-19T08:09:18.972Z,22.96
2023-03-19T08:10:18.999Z,22.95
2023-03-19T08:11:18.951Z,22.97
2023-03-19T08:12:18.962Z,22.92
2023-03-19T08:13:19.156Z,22.89
2023-03-19T08:14:18.928Z,22.91
2023-03-19T08:15:18.922Z,22.90
2023-03-19T08:16:18.950Z,22.89
2023-03-19T08:17:18.963Z,22.87
2023-03-19T08:18:18.892Z,22.94
2023-03-19T08:19:18.949Z,22.91
2023-03-19T08:20:18.952Z,22.89
2023-03-19T08:21:18.936Z,22.85
2023-03-19T08:22:18.927Z,22.89
2023-03-19T08:23:18.956Z,22.87
2023-03-19T08:24:18.870Z,22.91
2023-03-19T08:25:18.936Z,22.86
2023-03-19T08:26:18.837Z,22.84
2023-03-19T08:27:18.866Z,22.88
2023-03-19T08:28:18.827Z,22.90
2023-03-19T08:29:19.190Z,22.90
2023-03-19T08:30:18.840Z,22.85
2023-03-19T08:31:18.858Z,22.87
2023-03-19T08:32:18.804Z,22.85
2023-03-19T08:33:18.800Z,22.85
2023-03-19T08:34:18.793Z,22.85
2023-03-19T08:35:18.809Z,22.87
2023-03-19T08:36:18.815Z,22.85
2023-03-19T08:37:18.799Z,22.85
2023-03-19T08:38:18.757Z,22.86
2023-03-19T08:39:18.756Z,22.84
2023-03-19T08:40:18.752Z,22.80
2023-03-19T08:41:18.748Z,22.78
2023-03-19T08:42:18.747Z,22.79
2023-03-19T08:43:18.737Z,22.77
2023-03-19T08:44:18.790Z,22.82
2023-03-19T08:45:18.839Z,22.84
2023-03-19T08:46:18.973Z,22.80
2023-03-19T08:47:18.982Z,22.77
2023-03-19T08:48:19.064Z,22.80
2023-03-19T08:49:19.157Z,22.78
2023-03-19T08:50:19.130Z,22.79
2023-03-19T08:51:19.195Z,22.76
2023-03-19T08:52:19.257Z,22.75
2023-03-19T08:53:19.319Z,22.79
2023-03-19T08:54:22.194Z,22.77
2023-03-19T08:55:19.350Z,22.75
2023-03-19T09:34:19.101Z,22.57
2023-03-19T09:35:19.138Z,22.55
2023-03-19T09:36:19.128Z,22.55
2023-03-19T09:37:19.083Z,22.57
2023-03-19T09:38:19.073Z,22.57
2023-03-19T09:39:19.073Z,22.58
2023-03-19T09:40:19.081Z,22.55
2023-03-19T09:41:19.076Z,22.55
2023-03-19T09:42:19.139Z,22.56
2023-03-19T09:43:19.009Z,22.55
2023-03-19T09:44:19.027Z,22.55
2023-03-19T09:45:19.015Z,22.54
2023-03-19T09:46:21.933Z,22.55
2023-03-19T09:47:19.002Z,22.57
2023-03-19T09:48:19.012Z,22.58
2023-03-19T09:49:19.016Z,22.55
2023-03-19T09:50:19.018Z,22.57
2023-03-19T09:51:19.002Z,22.59
2023-03-19T09:52:18.965Z,22.59
2023-03-19T09:54:18.989Z,22.60
2023-03-19T09:55:18.941Z,22.57
2023-03-19T09:56:18.958Z,22.58
2023-03-19T09:57:18.963Z,22.61
2023-03-19T09:58:18.951Z,22.58
2023-03-19T09:59:18.928Z,22.59
2023-03-19T10:00:18.924Z,22.60
2023-03-19T10:01:18.961Z,22.60
2023-03-19T10:02:18.896Z,22.62
2023-03-19T10:03:18.905Z,22.62
2023-03-19T10:04:18.959Z,22.61
2023-03-19T10:05:18.865Z,22.63
2023-03-19T10:06:18.881Z,22.62
2023-03-19T10:07:18.885Z,22.60
2023-03-19T10:08:18.881Z,22.61
2023-03-19T10:09:18.877Z,22.60
2023-03-19T10:10:18.864Z,22.65
2023-03-19T10:11:18.921Z,22.67
2023-03-19T10:12:18.823Z,22.61
2023-03-19T10:13:18.874Z,22.62
2023-03-19T10:14:18.858Z,22.64
2023-03-19T10:15:18.813Z,22.61
2023-03-19T10:16:18.849Z,22.62
2023-03-19T10:17:18.829Z,22.58
2023-03-19T10:18:18.858Z,22.59
2023-03-19T10:19:18.825Z,22.60
2023-03-19T10:20:18.774Z,22.67
2023-03-19T10:21:18.833Z,22.65
2023-03-19T10:22:18.771Z,22.64
2023-03-19T10:23:18.769Z,22.64
2023-03-19T10:24:18.766Z,22.66
2023-03-19T10:25:18.772Z,22.65
2023-03-19T10:26:18.767Z,22.65
2023-03-19T10:27:18.774Z,22.62
2023-03-19T10:28:18.767Z,22.63
2023-03-19T10:29:18.770Z,22.60
2023-03-19T10:30:18.736Z,22.58
2023-03-19T10:31:18.733Z,22.60
2023-03-19T10:32:18.745Z,22.57
2023-03-19T10:33:18.756Z,22.58
2023-03-19T10:34:18.710Z,22.58
2023-03-19T10:35:18.738Z,22.59
2023-03-19T10:47:18.642Z,22.63
2023-03-19T10:48:18.661Z,22.65
2023-03-19T10:49:18.617Z,22.64
2023-03-19T10:50:18.699Z,22.60
2023-03-19T10:51:18.587Z,22.64
2023-03-19T10:52:18.607Z,22.62
2023-03-19T10:53:18.584Z,22.61
2023-03-19T10:54:18.577Z,22.61
2023-03-19T10:55:18.601Z,22.60
2023-03-19T10:56:18.606Z,22.62
2023-03-19T10:57:18.554Z,22.63
2023-03-19T10:58:18.579Z,22.64
2023-03-19T10:59:18.546Z,22.62
2023-03-19T11:00:18.703Z,22.61
2023-03-19T11:01:18.540Z,22.62
2023-03-19T11:02:18.518Z,22.65
2023-03-19T11:03:18.539Z,22.67
2023-03-19T11:04:18.655Z,22.70
2023-03-19T11:05:18.614Z,22.72
2023-03-19T11:06:18.706Z,22.69
2023-03-19T11:07:18.740Z,22.66
2023-03-19T11:08:34.594Z,22.68
2023-03-19T11:09:19.825Z,22.66
2023-03-19T11:10:18.769Z,22.68
2023-03-19T11:11:18.767Z,22.70
2023-03-19T11:12:18.776Z,22.66
2023-03-19T11:13:18.773Z,22.65
2023-03-19T11:45:19.281Z,22.66
2023-03-19T11:46:19.329Z,22.63
2023-03-19T11:47:27.258Z,22.65
2023-03-19T11:48:20.325Z,22.63
2023-03-19T11:49:19.291Z,22.64
2023-03-19T11:50:19.288Z,22.65
2023-03-19T11:51:19.306Z,22.62
2023-03-19T11:52:19.321Z,22.65
2023-03-19T11:53:19.264Z,22.63
2023-03-19T11:54:19.281Z,22.66
2023-03-19T11:55:19.267Z,22.68
2023-03-19T11:56:19.261Z,22.68
2023-03-19T11:57:19.302Z,22.69
2023-03-19T11:58:19.241Z,22.66
2023-03-19T11:59:19.254Z,22.69
2023-03-19T12:00:19.259Z,22.70
2023-03-19T12:01:19.236Z,22.69
2023-03-19T12:02:19.273Z,22.67
2023-03-19T12:03:19.276Z,22.71
2023-03-19T12:04:19.242Z,22.68
2023-03-19T12:05:19.249Z,22.67
2023-03-19T12:06:19.213Z,22.69
2023-03-19T12:07:19.236Z,22.69
2023-03-19T12:08:19.271Z,22.66
2023-03-19T12:09:19.372Z,22.67
2023-03-19T12:10:19.245Z,22.69
2023-03-19T12:11:19.269Z,22.69
2023-03-19T12:12:19.296Z,22.68
2023-03-19T12:13:19.223Z,22.69
2023-03-19T12:14:19.253Z,22.73
2023-03-19T12:15:19.270Z,22.73
2023-03-19T12:16:19.350Z,22.70
2023-03-19T12:17:19.232Z,22.68
2023-03-19T12:18:19.243Z,22.69
2023-03-19T12:19:19.257Z,22.71
2023-03-19T12:20:19.260Z,22.66
2023-03-19T12:21:19.244Z,22.70
2023-03-19T12:22:19.314Z,22.66
2023-03-19T12:23:19.279Z,22.67
2023-03-19T12:24:19.266Z,22.63
2023-03-19T12:25:19.224Z,22.63
2023-03-19T12:26:19.260Z,22.59
2023-03-19T12:27:19.231Z,22.62
2023-03-19T12:28:19.243Z,22.67
2023-03-19T12:29:19.236Z,22.67
2023-03-19T12:30:19.270Z,22.67
2023-03-19T12:31:19.300Z,22.65
2023-03-19T12:32:19.256Z,22.63
2023-03-19T12:33:19.288Z,22.67
2023-03-19T12:34:19.236Z,22.71
2023-03-19T12:35:19.252Z,22.62
2023-03-19T12:36:19.328Z,22.68
2023-03-19T12:37:19.290Z,22.66
2023-03-19T12:38:19.308Z,22.68
2023-03-19T12:39:19.304Z,22.65
2023-03-19T12:40:19.339Z,22.63
2023-03-19T12:41:19.344Z,22.72
2023-03-19T12:42:19.365Z,22.69
2023-03-19T12:43:19.347Z,22.73
2023-03-19T12:44:19.363Z,22.64
2023-03-19T12:45:19.374Z,22.64
2023-03-19T12:46:19.427Z,22.65
2023-03-19T12:47:19.381Z,22.66
2023-03-19T12:48:19.441Z,22.65
2023-03-19T12:49:19.448Z,22.77
2023-03-19T12:50:19.458Z,22.78
2023-03-19T12:51:19.479Z,22.77
2023-03-19T12:52:19.519Z,22.71
2023-03-19T12:53:19.512Z,22.75
2023-03-19T12:54:19.516Z,22.72
2023-03-19T12:55:19.546Z,22.62
2023-03-19T12:56:19.542Z,22.66
2023-03-19T12:57:19.563Z,22.67
2023-03-19T12:58:19.572Z,22.74
2023-03-19T12:59:19.578Z,22.79
2023-03-19T13:00:19.617Z,22.82
2023-03-19T13:01:19.670Z,22.82
2023-03-19T13:02:19.816Z,22.71
2023-03-19T13:03:19.687Z,22.73
2023-03-19T13:04:19.695Z,22.79
2023-03-19T13:05:19.679Z,22.76
2023-03-19T13:06:19.697Z,22.81
2023-03-19T13:07:19.704Z,22.73
2023-03-19T13:08:19.761Z,22.58
2023-03-19T13:09:19.797Z,22.71
2023-03-19T13:10:19.798Z,22.69
2023-03-19T13:11:19.797Z,22.64
2023-03-19T13:12:19.876Z,22.65
2023-03-19T13:13:19.878Z,22.76
2023-03-19T13:14:19.940Z,22.75
2023-03-19T13:15:19.969Z,22.70
2023-03-19T13:16:20.063Z,22.78
2023-03-19T13:17:21.439Z,22.78
2023-03-19T13:19:20.001Z,22.87
2023-03-19T13:20:20.082Z,22.83
2023-03-19T13:21:20.079Z,22.84
2023-03-19T13:22:20.125Z,22.91
2023-03-19T13:25:20.213Z,22.95
2023-03-19T13:26:20.250Z,22.97
2023-03-19T13:27:20.327Z,22.92
2023-03-19T13:28:20.311Z,22.95
2023-03-19T13:30:20.422Z,22.85
2023-03-19T13:31:20.516Z,22.79
2023-03-19T14:19:22.924Z,23.31
2023-03-19T14:20:28.381Z,23.21
2023-03-19T14:21:23.931Z,23.27
2023-03-19T14:22:22.975Z,23.29
2023-03-19T14:23:25.130Z,23.10
2023-03-19T14:24:54.895Z,23.12
2023-03-19T14:25:23.927Z,23.10
2023-03-19T14:26:23.058Z,23.07
2023-03-19T14:27:22.915Z,23.16
2023-03-19T14:28:22.924Z,23.04
2023-03-19T14:29:22.934Z,22.88
2023-03-19T14:30:22.917Z,23.05
2023-03-19T14:31:23.024Z,23.22
2023-03-19T15:48:22.898Z,23.67
2023-03-19T15:49:22.928Z,23.73
2023-03-19T15:50:22.923Z,23.79
2023-03-19T15:51:22.951Z,23.73
2023-03-19T15:52:22.999Z,23.74
2023-03-19T15:53:23.018Z,23.65
2023-03-19T15:54:23.009Z,23.67
2023-03-19T15:55:23.032Z,23.69
2023-03-19T15:56:23.049Z,23.68
2023-03-19T15:57:23.098Z,23.64
2023-03-19T15:58:23.118Z,23.71
2023-03-19T15:59:23.110Z,23.66
2023-03-19T16:00:23.148Z,23.68
2023-03-19T16:01:23.248Z,23.70
2023-03-19T16:02:23.244Z,23.69
2023-03-19T16:03:23.224Z,23.71
2023-03-19T16:04:23.226Z,23.75
2023-03-19T16:05:23.538Z,23.69
2023-03-19T16:06:25.686Z,23.74
2023-03-19T16:07:23.288Z,23.71
2023-03-19T16:08:23.284Z,23.70
2023-03-19T16:09:23.241Z,23.73
2023-03-19T16:10:23.257Z,23.59
2023-03-19T16:11:23.228Z,23.60
2023-03-19T16:12:23.330Z,23.59
2023-03-19T16:13:23.265Z,23.71
2023-03-19T16:14:23.243Z,23.74
2023-03-19T16:15:23.209Z,23.70
2023-03-19T16:16:23.372Z,23.71
2023-03-19T16:17:23.166Z,23.78
2023-03-19T16:18:23.205Z,23.72
2023-03-19T16:19:23.183Z,23.78
2023-03-19T16:20:23.182Z,23.75
2023-03-19T16:21:23.164Z,23.39
2023-03-19T16:22:23.149Z,23.70
2023-03-19T16:23:23.174Z,23.79
2023-03-19T16:24:23.147Z,23.78
2023-03-19T16:25:23.143Z,23.77
2023-03-19T16:26:23.190Z,23.73
2023-03-19T16:27:23.152Z,23.69
2023-03-19T16:28:23.114Z,23.69
2023-03-19T16:29:23.103Z,23.78
2023-03-19T16:30:23.141Z,23.79
2023-03-19T16:31:23.204Z,23.73
2023-03-19T16:32:23.090Z,23.75
2023-03-19T16:33:23.086Z,23.74
2023-03-19T16:34:23.095Z,23.76
2023-03-19T16:35:23.082Z,23.76
2023-03-19T16:36:23.086Z,23.78
2023-03-19T16:37:23.057Z,23.69
2023-03-19T16:38:23.066Z,23.78
2023-03-19T16:39:23.056Z,23.84
2023-03-19T16:40:23.054Z,23.73
2023-03-19T16:41:23.042Z,23.74
2023-03-19T16:42:23.060Z,23.45
2023-03-19T16:43:23.037Z,23.80
2023-03-19T16:44:23.009Z,23.68
2023-03-19T16:45:23.021Z,23.58
2023-03-19T16:46:23.061Z,23.72
2023-03-19T16:47:22.986Z,23.78
2023-03-19T16:48:23.034Z,23.81
2023-03-19T16:49:22.993Z,23.76
2023-03-19T16:50:22.990Z,23.81
2023-03-19T16:51:22.987Z,23.83
2023-03-19T16:52:22.970Z,23.77
2023-03-19T16:53:22.979Z,23.65
2023-03-19T16:54:22.935Z,23.84
2023-03-19T16:55:22.973Z,23.86
2023-03-19T16:56:22.928Z,23.56
2023-03-19T16:57:22.944Z,23.66
2023-03-19T16:58:22.945Z,23.74
2023-03-19T16:59:22.929Z,23.78
2023-03-19T17:00:22.974Z,23.80
2023-03-19T17:01:23.028Z,23.83
2023-03-19T17:02:23.059Z,23.81
2023-03-19T17:03:23.060Z,23.79
2023-03-19T17:04:23.151Z,23.85
2023-03-19T17:05:23.177Z,23.78
2023-03-19T17:06:23.161Z,23.80
2023-03-19T17:07:23.213Z,23.82
2023-03-19T17:08:23.250Z,23.88
2023-03-19T17:09:23.239Z,23.89
2023-03-19T17:10:23.304Z,23.90
2023-03-19T17:11:23.337Z,23.86
2023-03-19T17:12:23.370Z,23.86
2023-03-19T17:13:23.406Z,23.87
2023-03-19T17:14:23.427Z,23.92
2023-03-19T17:15:23.491Z,23.85
2023-03-19T17:16:23.608Z,23.87
2023-03-19T17:17:23.547Z,23.55
2023-03-19T17:18:23.631Z,23.87
2023-03-19T17:19:23.696Z,23.81
2023-03-19T17:20:23.713Z,23.82
2023-03-19T17:21:23.749Z,23.68
2023-03-19T17:22:23.801Z,23.83
2023-03-19T17:23:23.794Z,23.89
2023-03-19T17:24:23.870Z,23.86
2023-03-19T17:25:23.899Z,23.88
2023-03-19T17:26:23.950Z,23.81
2023-03-19T17:27:23.978Z,23.80
2023-03-19T17:28:24.036Z,23.77
2023-03-19T17:29:24.070Z,23.86
2023-03-19T17:30:24.127Z,23.79
2023-03-19T17:31:24.211Z,23.81
2023-03-19T17:32:24.201Z,23.82
2023-03-19T17:33:24.286Z,23.70
2023-03-19T17:34:24.279Z,23.83
2023-03-19T17:35:24.354Z,23.89
2023-03-19T17:36:24.401Z,23.89
2023-03-19T17:37:24.421Z,23.91
2023-03-19T17:38:24.493Z,23.89
2023-03-19T17:39:24.511Z,23.89
2023-03-19T17:40:24.566Z,23.93
2023-03-19T17:41:24.631Z,23.85
2023-03-19T17:42:24.671Z,23.87
2023-03-19T17:43:24.726Z,23.91
2023-03-19T17:44:24.797Z,23.94
2023-03-19T17:45:24.823Z,23.70
2023-03-19T17:46:24.925Z,23.86
2023-03-19T17:47:24.913Z,23.92
2023-03-19T17:48:24.965Z,23.91
2023-03-19T17:49:25.010Z,23.92
2023-03-19T17:50:25.089Z,23.93
2023-03-19T17:51:25.149Z,23.97
2023-03-19T17:52:25.162Z,23.94
2023-03-19T17:53:25.197Z,23.91
2023-03-19T17:54:25.262Z,23.95
2023-03-19T17:55:25.325Z,23.95
2023-03-19T17:56:25.343Z,23.97
2023-03-19T17:57:25.422Z,24.00
2023-03-19T17:58:25.519Z,23.99
2023-03-19T17:59:25.478Z,23.97
2023-03-19T18:00:25.553Z,23.98
2023-03-19T18:01:25.702Z,23.96
2023-03-19T18:02:25.651Z,23.98
2023-03-19T18:03:25.769Z,23.98
2023-03-19T18:04:25.737Z,23.97
2023-03-19T18:05:25.802Z,24.01
2023-03-19T18:06:25.836Z,23.97
2023-03-19T18:07:25.888Z,23.98
2023-03-19T18:08:25.920Z,24.00
2023-03-19T18:09:26.007Z,23.97
2023-03-19T18:10:26.049Z,24.00
2023-03-19T18:11:26.102Z,23.98
2023-03-19T18:12:26.120Z,24.00
2023-03-19T18:13:26.192Z,23.98
2023-03-19T18:14:26.240Z,24.00
2023-03-19T18:15:26.314Z,24.02
2023-03-19T18:16:26.389Z,24.02
2023-03-19T18:17:26.405Z,23.98
2023-03-19T18:18:26.448Z,24.01
2023-03-19T18:19:26.475Z,23.96
2023-03-19T18:20:26.554Z,24.00
2023-03-19T18:21:26.597Z,24.01
2023-03-19T18:22:26.662Z,24.01
2023-03-19T18:23:26.707Z,23.96
2023-03-19T18:24:26.762Z,24.00
2023-03-19T18:25:26.817Z,24.01
2023-03-19T18:26:26.867Z,24.02
2023-03-19T18:27:26.917Z,24.00
2023-03-19T18:28:26.977Z,24.02
2023-03-19T18:29:27.071Z,23.99
2023-03-19T18:30:27.088Z,24.03
2023-03-19T18:31:27.154Z,24.01
2023-03-19T18:32:27.188Z,24.02
2023-03-19T18:33:27.249Z,24.01
2023-03-19T18:34:27.296Z,24.03
2023-03-19T18:35:27.403Z,24.03
2023-03-19T18:36:27.410Z,24.01
2023-03-19T18:37:27.478Z,23.99
2023-03-19T18:38:27.542Z,24.05
2023-03-19T18:39:27.575Z,24.03
2023-03-19T18:40:27.652Z,23.97
2023-03-19T18:41:27.719Z,24.00
2023-03-19T18:42:27.761Z,24.01
2023-03-19T18:43:27.800Z,24.01
2023-03-19T18:44:27.869Z,24.02
2023-03-19T18:45:27.898Z,24.01
2023-03-19T18:46:28.002Z,24.03
2023-03-19T18:47:28.049Z,24.06
2023-03-19T18:48:28.142Z,24.01
2023-03-19T18:49:28.132Z,24.02
2023-03-19T18:50:28.198Z,24.00
2023-03-19T18:51:28.345Z,24.01
2023-03-19T18:52:28.348Z,24.01
2023-03-19T18:53:28.390Z,24.01
2023-03-19T18:54:28.442Z,23.94
2023-03-19T18:55:28.490Z,24.03
2023-03-19T18:56:28.547Z,24.03
2023-03-19T18:57:28.622Z,24.01
2023-03-19T18:58:28.661Z,23.99
2023-03-19T18:59:28.732Z,23.94
2023-03-19T19:00:28.784Z,23.98
2023-03-19T19:01:28.851Z,23.96
2023-03-19T19:02:28.915Z,24.01
2023-03-19T19:03:28.994Z,24.02
2023-03-19T19:04:29.856Z,24.00
2023-03-19T19:05:29.108Z,23.94
2023-03-19T19:06:45.922Z,23.97
2023-03-19T19:07:30.106Z,23.97
2023-03-19T19:08:29.116Z,23.94
2023-03-19T19:09:29.125Z,24.00
2023-03-19T19:10:29.082Z,24.04
2023-03-19T19:11:29.065Z,23.98
2023-03-19T19:12:29.070Z,23.97
2023-03-19T19:13:29.065Z,23.93
2023-03-19T19:14:29.135Z,23.95
2023-03-19T19:15:29.115Z,24.03
2023-03-19T19:16:29.244Z,23.99
2023-03-19T19:17:29.263Z,23.99
2023-03-19T19:18:29.293Z,24.00
2023-03-19T19:19:29.351Z,23.96
2023-03-19T19:20:29.439Z,23.99
2023-03-19T19:21:29.500Z,24.00
2023-03-19T19:22:29.504Z,24.01
2023-03-19T19:23:29.559Z,23.97
2023-03-19T19:24:29.648Z,23.97
2023-03-19T19:25:29.699Z,24.06
2023-03-19T19:26:29.731Z,24.04
2023-03-19T19:27:29.802Z,24.04
2023-03-19T19:28:29.886Z,23.98
2023-03-19T19:29:29.933Z,23.99
2023-03-19T19:30:29.985Z,24.01
2023-03-19T19:31:30.101Z,24.00
2023-03-19T19:32:30.120Z,24.02
2023-03-19T19:33:30.178Z,24.02
2023-03-19T19:34:30.223Z,24.05
2023-03-19T19:35:30.288Z,24.04
2023-03-19T19:36:30.330Z,23.99
2023-03-19T19:37:30.405Z,24.00
2023-03-19T19:38:30.506Z,24.05
2023-03-19T19:39:30.546Z,24.05
2023-03-19T19:40:30.587Z,24.06
2023-03-19T19:41:30.642Z,24.02
2023-03-19T19:42:30.728Z,24.04
2023-03-19T19:43:31.229Z,24.09
2023-03-19T19:44:30.846Z,24.06
2023-03-19T19:45:30.908Z,23.99
2023-03-19T19:46:31.017Z,23.99
2023-03-19T19:47:31.049Z,24.05
2023-03-19T19:48:31.078Z,24.02
2023-03-19T19:49:31.146Z,24.03
2023-03-19T19:50:31.219Z,24.01
2023-03-19T19:51:31.260Z,24.05
2023-03-19T19:52:31.947Z,24.09
2023-03-19T19:53:31.373Z,24.11
2023-03-19T19:54:31.488Z,24.04
2023-03-19T19:55:31.509Z,24.03
2023-03-19T19:56:31.604Z,24.10
2023-03-19T19:57:31.662Z,24.09
2023-03-19T19:58:31.721Z,24.07
2023-03-19T19:59:31.782Z,24.05
2023-03-19T20:00:31.859Z,24.05
2023-03-19T20:01:31.977Z,24.10
2023-03-19T20:02:31.953Z,24.08
2023-03-19T20:03:32.091Z,24.06
2023-03-19T20:04:32.110Z,24.10
2023-03-19T20:19:32.947Z,24.09
2023-03-19T20:20:33.002Z,24.03
2023-03-19T20:21:33.042Z,24.10
2023-03-19T20:22:33.093Z,24.09
2023-03-19T20:23:33.181Z,24.12
2023-03-19T20:24:33.230Z,24.12
2023-03-19T20:25:33.413Z,24.16
2023-03-19T20:26:33.318Z,24.14
2023-03-19T20:27:33.350Z,24.13
2023-03-19T20:28:33.480Z,24.13
2023-03-19T20:29:33.476Z,24.09
2023-03-19T20:30:33.525Z,24.07
2023-03-19T20:31:33.625Z,24.07
2023-03-19T20:32:33.750Z,24.04
2023-03-19T20:33:33.711Z,24.10
2023-03-19T20:34:39.308Z,24.09
2023-03-19T20:35:35.136Z,24.11
2023-03-19T20:36:33.736Z,24.14
2023-03-19T20:37:33.727Z,24.10
2023-03-19T20:38:33.743Z,24.11
2023-03-19T20:39:33.716Z,24.13
2023-03-19T20:40:33.707Z,24.13
2023-03-19T20:41:33.690Z,24.15
2023-03-19T20:42:33.717Z,24.06
2023-03-19T20:43:33.717Z,24.08
2023-03-19T20:44:33.783Z,24.08
2023-03-19T20:45:34.118Z,24.13
2023-03-19T20:46:33.967Z,24.15
2023-03-19T20:47:33.921Z,24.16
2023-03-19T20:48:34.014Z,24.16
2023-03-19T20:49:34.046Z,24.16
2023-03-19T20:50:34.196Z,24.17
2023-03-19T20:51:34.193Z,24.10
2023-03-19T20:52:34.253Z,24.12
2023-03-19T20:53:34.292Z,24.16
2023-03-19T20:54:34.378Z,24.18
2023-03-19T20:55:34.845Z,24.17
2023-03-19T20:56:34.473Z,24.08
2023-03-19T20:57:34.542Z,24.15
2023-03-19T20:58:34.605Z,24.18
2023-03-19T20:59:34.633Z,24.18